DMAD Reservoir




Date Reservoir Capacity (AF) Hourly Avg. Stream Stage (ft) Reservoir Outflow (cfs) Reservoir Gate 1 Height (ft) Reservoir Gate 2 Height (ft) Reservoir Gate 3 Height (ft) Stream Flow (cfs) Stream Conductivity (ppm) Battery Voltage (V) Reservoir Height (ft) Canal Flow (cfs) Canal Height (ft) Canal Flow 2 (ft)
11/01/2018 3,345 0 0.00 0.00 0.00 0.00 0.00 13.15 57.66 0.00 0.00
11/02/2018 3,345 0 0.00 0.00 0.00 0.00 0.00 13.27 57.66 0.00 0.00
11/03/2018 3,345 0 0.00 0.00 0.00 0.00 0.00 13.28 57.66 0.00 0.00
11/04/2018 3,327 0 0.00 0.00 0.00 0.00 0.00 13.28 57.63 0.00 0.00
11/05/2018 3,285 0 0.00 0.00 0.00 0.00 0.00 13.41 57.56 0.00 0.00
11/06/2018 3,279 0 0.00 0.00 0.00 0.00 0.00 13.42 57.55 0.00 0.00
11/07/2018 3,309 0 0.00 0.00 0.00 0.00 0.00 13.43 57.60 0.00 0.00
11/08/2018 3,279 0 0.00 0.00 0.00 0.00 0.00 13.38 57.55 0.00 0.00
11/09/2018 3,494 0 0.00 0.00 0.00 0.00 0.00 13.42 57.91 0.00 0.00
11/10/2018 5,165 0 0.00 0.00 0.00 0.00 0.00 13.42 60.15 0.00 0.00
11/11/2018 8,000 0 0.00 0.00 0.00 0.00 0.00 13.38 63.24 0.00 0.00
11/12/2018 8,128 0 0.00 0.00 0.00 0.00 0.00 13.46 63.37 0.00 0.00
11/13/2018 9,993 0 0.00 0.00 0.00 0.00 0.00 13.41 65.11 0.00 0.00
11/14/2018 3,542 0 0.00 0.00 0.00 0.00 0.00 13.38 57.99 0.00 0.00
11/15/2018 3,291 0 0.00 0.00 0.00 0.00 0.00 13.38 57.57 0.00 0.00
11/16/2018 4,767 0 0.00 0.00 0.00 0.00 0.00 13.36 59.64 0.00 0.00
11/17/2018 4,053 0 0.00 0.00 0.00 0.00 0.00 13.36 58.68 0.00 0.00
11/18/2018 8,895 0 0.00 0.00 0.00 0.00 0.00 13.39 64.13 0.00 0.00
11/19/2018 0 0.00 0.00 0.00 0.00 0.00 13.38 67.11 0.00 0.00
11/20/2018 8,719 0 0.00 0.00 0.00 0.00 0.00 13.35 63.97 0.00 0.00
11/21/2018 5,382 0 0.00 0.00 0.00 0.00 0.00 13.42 60.40 0.00 0.00
11/22/2018 8,246 0 0.00 0.00 0.00 0.00 0.00 12.90 63.49 0.00 0.00
11/23/2018 6,733 0 0.00 0.00 0.00 0.00 0.00 13.30 61.95 0.00 0.00
11/24/2018 5,635 0 0.00 0.00 0.00 0.00 0.00 12.87 60.69 0.00 0.00
11/25/2018 6,341 0 0.00 0.00 0.00 0.00 0.00 13.39 61.50 0.00 0.00
11/26/2018 5,783 0 0.00 0.00 0.00 0.00 0.00 13.38 60.86 0.00 0.00
11/27/2018 5,478 0 0.00 0.00 0.00 0.00 0.00 13.30 60.51 0.00 0.00
11/28/2018 8,305 0 0.00 0.00 0.00 0.00 0.00 12.79 63.55 0.00 0.00
11/29/2018 0 0.00 0.00 0.00 0.00 0.00 13.01 66.04 0.00 0.00
11/30/2018 5,217 0 0.00 0.00 0.00 0.00 0.00 13.37 60.21 0.00 0.00
Average 0 0.00 0.00
Maximum 0 0.00 0.00
Minimum 0 0.00 0.00
Total Volume (AF) 0 0.00 0.00